createdAt,value
2018-06-20T00:00:06.804Z,86.68
2018-06-20T00:02:35.698Z,86.92
2018-06-20T00:05:03.614Z,86.07
2018-06-20T00:07:32.051Z,86.72
2018-06-20T00:10:04.995Z,86.53
2018-06-20T00:12:37.950Z,87.61
2018-06-20T00:15:05.940Z,87.74
2018-06-20T00:17:43.423Z,87.60
2018-06-20T00:20:18.422Z,87.56
2018-06-20T00:22:47.034Z,88.11
2018-06-20T00:25:21.197Z,88.80
2018-06-20T00:27:54.394Z,87.90
2018-06-20T00:30:25.374Z,88.84
2018-06-20T00:32:55.304Z,88.93
2018-06-20T00:38:06.659Z,87.72
2018-06-20T00:40:33.572Z,86.39
2018-06-20T00:43:00.530Z,87.01
2018-06-20T00:45:27.479Z,86.75
2018-06-20T00:47:54.439Z,86.28
2018-06-20T00:50:21.386Z,87.57
2018-06-20T00:52:49.071Z,88.87
2018-06-20T00:55:26.946Z,90.05
2018-06-20T00:58:03.578Z,89.69
2018-06-20T01:00:38.094Z,88.70
2018-06-20T01:03:06.602Z,89.37
2018-06-20T01:05:34.358Z,89.02
2018-06-20T01:08:01.330Z,88.93
2018-06-20T01:10:30.338Z,88.95
2018-06-20T01:13:05.787Z,89.14
2018-06-20T01:15:33.767Z,88.97
2018-06-20T01:18:01.546Z,89.15
2018-06-20T01:20:32.182Z,88.35
2018-06-20T01:22:59.161Z,89.25
2018-06-20T01:25:29.081Z,88.63
2018-06-20T01:27:55.989Z,88.66
2018-06-20T01:30:23.671Z,89.42
2018-06-20T01:32:56.699Z,90.56
2018-06-20T01:35:25.603Z,89.72
2018-06-20T01:37:57.586Z,90.25
2018-06-20T01:40:27.469Z,89.09
2018-06-20T01:42:57.428Z,90.01
2018-06-20T01:45:24.407Z,89.97
2018-06-20T01:47:59.542Z,91.17
2018-06-20T01:50:31.525Z,90.98
2018-06-20T01:53:08.426Z,91.11
2018-06-20T01:55:36.463Z,91.46
2018-06-20T01:58:10.517Z,91.26
2018-06-20T02:00:42.040Z,91.44
2018-06-20T02:03:08.955Z,89.83
2018-06-20T02:05:36.918Z,90.21
2018-06-20T02:08:07.899Z,91.23
2018-06-20T02:10:36.902Z,91.64
2018-06-20T02:13:05.178Z,91.92
2018-06-20T02:15:36.230Z,92.08
2018-06-20T02:18:09.427Z,92.23
2018-06-20T02:20:45.914Z,91.99
2018-06-20T02:23:22.290Z,91.33
2018-06-20T02:25:51.082Z,92.11
2018-06-20T02:28:28.395Z,91.47
2018-06-20T02:31:01.187Z,91.98
2018-06-20T02:33:29.645Z,91.49
2018-06-20T02:36:22.710Z,91.67
2018-06-20T02:41:51.074Z,92.87
2018-06-20T02:44:18.034Z,92.48
2018-06-20T02:46:49.506Z,93.15
2018-06-20T02:49:21.462Z,92.21
2018-06-20T02:51:48.419Z,92.75
2018-06-20T02:54:17.127Z,91.97
2018-06-20T02:56:44.076Z,93.20
2018-06-20T02:59:18.826Z,92.35
2018-06-20T03:01:54.214Z,92.12
2018-06-20T03:04:25.634Z,92.69
2018-06-20T03:06:54.181Z,92.76
2018-06-20T03:09:26.798Z,91.71
2018-06-20T03:12:00.532Z,92.70
2018-06-20T03:14:30.531Z,92.66
2018-06-20T03:16:57.393Z,92.36
2018-06-20T03:19:32.590Z,92.85
2018-06-20T03:22:03.946Z,92.49
2018-06-20T03:24:33.953Z,92.53
2018-06-20T03:27:03.994Z,92.19
2018-06-20T03:29:33.947Z,92.42
2018-06-20T03:32:00.943Z,92.76
2018-06-20T03:34:40.672Z,92.46
2018-06-20T03:37:08.198Z,91.23
2018-06-20T03:39:38.147Z,91.05
2018-06-20T03:42:14.932Z,91.06
2018-06-20T03:44:47.935Z,88.58
2018-06-20T03:47:22.989Z,87.60
2018-06-20T03:50:00.951Z,85.33
2018-06-20T03:52:34.233Z,83.61
2018-06-20T03:55:03.751Z,82.45
2018-06-20T03:57:30.718Z,81.03
2018-06-20T03:59:58.210Z,81.19
2018-06-20T04:02:28.162Z,79.31
2018-06-20T04:04:58.142Z,78.91
2018-06-20T04:07:25.061Z,79.94
2018-06-20T04:09:52.697Z,78.38
2018-06-20T04:12:21.742Z,78.53
2018-06-20T04:14:51.251Z,77.84
2018-06-20T04:17:18.245Z,75.93
2018-06-20T04:19:45.138Z,75.89
2018-06-20T04:22:13.675Z,73.87
2018-06-20T04:24:40.610Z,73.84
2018-06-20T04:27:12.704Z,72.84
2018-06-20T04:29:40.174Z,71.73
2018-06-20T04:32:07.082Z,72.55
2018-06-20T04:34:35.801Z,72.92
2018-06-20T04:37:10.359Z,72.47
2018-06-20T04:39:39.269Z,72.91
2018-06-20T04:42:06.295Z,73.21
2018-06-20T04:44:34.266Z,74.42
2018-06-20T04:47:01.143Z,74.40
2018-06-20T04:49:33.874Z,74.52
2018-06-20T04:52:01.726Z,74.03
2018-06-20T04:54:28.670Z,71.99
2018-06-20T04:56:57.266Z,72.12
2018-06-20T04:59:25.107Z,72.75
2018-06-20T05:02:10.035Z,73.94
2018-06-20T05:04:38.726Z,75.62
2018-06-20T05:07:06.162Z,77.57
2018-06-20T05:09:33.061Z,77.95
2018-06-20T05:11:59.997Z,78.16
2018-06-20T05:14:27.652Z,77.95
2018-06-20T05:16:59.362Z,78.05
2018-06-20T05:19:26.312Z,78.60
2018-06-20T05:22:04.642Z,76.88
2018-06-20T05:24:32.178Z,77.22
2018-06-20T05:27:11.797Z,76.97
2018-06-20T05:29:39.225Z,75.99
2018-06-20T05:32:07.771Z,74.92
2018-06-20T05:34:37.253Z,74.80
2018-06-20T05:37:10.474Z,76.57
2018-06-20T05:39:53.594Z,76.20
2018-06-20T05:42:22.254Z,73.88
2018-06-20T05:44:54.467Z,74.12
2018-06-20T05:47:27.551Z,73.26
2018-06-20T05:49:57.498Z,74.00
2018-06-20T05:52:32.179Z,73.96
2018-06-20T05:55:05.222Z,73.33
2018-06-20T05:57:33.243Z,72.07
2018-06-20T06:00:04.472Z,71.42
2018-06-20T06:02:32.362Z,70.89
2018-06-20T06:05:02.251Z,70.56
2018-06-20T06:07:31.114Z,70.79
2018-06-20T06:09:58.032Z,72.60
2018-06-20T06:12:27.966Z,71.67
2018-06-20T06:14:54.921Z,73.18
2018-06-20T06:17:24.880Z,73.21
2018-06-20T06:19:56.222Z,71.28
2018-06-20T06:22:26.139Z,70.71
2018-06-20T06:24:54.053Z,70.59
2018-06-20T06:27:22.789Z,70.39
2018-06-20T06:29:50.291Z,68.68
2018-06-20T06:32:20.187Z,69.07
2018-06-20T06:34:50.138Z,68.48
2018-06-20T06:37:18.884Z,67.26
2018-06-20T06:39:47.855Z,68.17
2018-06-20T06:42:15.863Z,66.76
2018-06-20T06:44:42.798Z,66.59
2018-06-20T06:47:10.789Z,67.95
2018-06-20T06:49:40.378Z,68.01
2018-06-20T06:52:10.210Z,67.24
2018-06-20T06:54:37.778Z,66.70
2018-06-20T06:57:05.266Z,64.57
2018-06-20T06:59:38.304Z,65.45
2018-06-20T07:02:08.803Z,65.84
2018-06-20T07:04:36.228Z,63.56
2018-06-20T07:07:04.858Z,65.56
2018-06-20T07:09:31.930Z,65.53
2018-06-20T07:12:00.822Z,66.09
2018-06-20T07:14:30.335Z,64.28
2018-06-20T07:17:01.906Z,62.92
2018-06-20T07:19:32.007Z,62.68
2018-06-20T07:21:58.989Z,61.83
2018-06-20T07:24:31.330Z,62.66
2018-06-20T07:27:00.915Z,62.76
2018-06-20T07:29:28.795Z,60.96
2018-06-20T07:31:55.770Z,60.83
2018-06-20T07:34:23.323Z,61.52
2018-06-20T07:36:50.763Z,60.49
2018-06-20T07:39:18.422Z,59.37
2018-06-20T07:41:46.342Z,59.93
2018-06-20T07:44:29.173Z,59.67
2018-06-20T07:46:56.190Z,60.54
2018-06-20T07:49:26.858Z,60.65
2018-06-20T07:51:56.372Z,59.52
2018-06-20T07:54:26.325Z,58.50
2018-06-20T07:56:56.178Z,59.83
2018-06-20T07:59:50.374Z,58.46
2018-06-20T08:02:34.742Z,57.74
2018-06-20T08:05:07.350Z,56.88
2018-06-20T08:07:40.151Z,57.61
2018-06-20T08:10:15.762Z,57.35
2018-06-20T08:12:48.434Z,57.23
2018-06-20T08:15:22.168Z,57.95
2018-06-20T08:17:54.874Z,57.28
2018-06-20T08:20:23.946Z,57.67
2018-06-20T08:22:52.862Z,58.42
2018-06-20T08:25:22.791Z,55.26
2018-06-20T08:27:49.755Z,56.19
2018-06-20T08:30:16.601Z,54.48
2018-06-20T08:32:43.620Z,53.39
2018-06-20T08:35:10.667Z,55.16
2018-06-20T08:37:37.554Z,54.49
2018-06-20T08:40:08.626Z,52.79
2018-06-20T08:42:38.601Z,53.58
2018-06-20T08:45:05.521Z,50.67
2018-06-20T08:47:32.470Z,53.16
2018-06-20T08:50:00.329Z,51.68
2018-06-20T08:52:28.377Z,53.06
2018-06-20T08:54:57.322Z,55.99
2018-06-20T08:57:24.343Z,56.08
2018-06-20T08:59:52.927Z,51.94
2018-06-20T09:02:20.803Z,52.58
2018-06-20T09:04:56.530Z,51.07
2018-06-20T09:07:30.274Z,49.82
2018-06-20T09:10:03.019Z,48.85
2018-06-20T09:12:36.630Z,50.48
2018-06-20T09:15:09.326Z,49.42
2018-06-20T09:17:49.494Z,48.97
2018-06-20T09:20:17.360Z,47.65
2018-06-20T09:22:45.278Z,47.37
2018-06-20T09:25:13.135Z,47.63
2018-06-20T09:27:40.102Z,46.98
2018-06-20T09:30:07.145Z,47.36
2018-06-20T09:32:34.015Z,46.05
2018-06-20T09:35:00.974Z,48.11
2018-06-20T09:37:28.789Z,49.04
2018-06-20T09:39:56.679Z,48.03
2018-06-20T09:42:25.417Z,49.81
2018-06-20T09:44:52.899Z,46.61
2018-06-20T09:47:19.754Z,44.45
2018-06-20T09:49:49.481Z,45.33
2018-06-20T09:55:17.438Z,47.76
2018-06-20T09:57:44.358Z,47.92
2018-06-20T10:00:20.742Z,47.80
2018-06-20T10:02:53.402Z,49.89
2018-06-20T10:05:26.150Z,50.09
2018-06-20T10:07:58.718Z,49.18
2018-06-20T10:10:31.333Z,49.05
2018-06-20T10:13:04.694Z,46.18
2018-06-20T10:15:40.158Z,43.86
2018-06-20T10:18:08.970Z,44.62
2018-06-20T10:20:35.817Z,43.01
2018-06-20T10:23:05.750Z,45.47
2018-06-20T10:25:32.701Z,47.46
2018-06-20T10:28:11.079Z,44.20
2018-06-20T10:30:38.066Z,43.29
2018-06-20T10:33:06.062Z,43.26
2018-06-20T10:35:33.030Z,46.29
2018-06-20T10:37:59.977Z,45.24
2018-06-20T10:40:26.945Z,45.15
2018-06-20T10:42:53.886Z,46.65
2018-06-20T10:45:26.489Z,44.07
2018-06-20T10:47:53.437Z,43.98
2018-06-20T10:50:20.390Z,45.32
2018-06-20T10:52:47.934Z,42.64
2018-06-20T10:55:15.961Z,43.45
2018-06-20T10:57:48.623Z,44.97
2018-06-20T11:00:24.965Z,42.20
2018-06-20T11:02:58.138Z,42.47
2018-06-20T11:05:30.926Z,41.23
2018-06-20T11:08:03.691Z,40.52
2018-06-20T11:10:36.378Z,41.16
2018-06-20T11:13:13.029Z,44.06
2018-06-20T11:15:40.107Z,39.85
2018-06-20T11:18:07.003Z,39.67
2018-06-20T11:20:39.801Z,40.81
2018-06-20T11:23:06.791Z,41.18
2018-06-20T11:25:33.726Z,42.67
2018-06-20T11:28:02.707Z,41.59
2018-06-20T11:30:31.510Z,41.79
2018-06-20T11:33:00.023Z,41.26
2018-06-20T11:35:26.994Z,44.03
2018-06-20T11:38:02.529Z,40.50
2018-06-20T11:40:30.515Z,43.56
2018-06-20T11:42:57.469Z,40.75
2018-06-20T11:45:44.033Z,45.38
2018-06-20T11:48:10.909Z,41.81
2018-06-20T11:50:37.818Z,39.93
2018-06-20T11:53:09.762Z,38.55
2018-06-20T11:55:38.921Z,39.01
2018-06-20T11:58:12.163Z,39.17
2018-06-20T12:00:47.799Z,39.15
2018-06-20T12:03:20.557Z,43.63
2018-06-20T12:05:53.458Z,42.05
2018-06-20T12:08:30.520Z,43.16
2018-06-20T12:11:06.838Z,41.73
2018-06-20T12:13:39.442Z,39.99
2018-06-20T12:16:13.176Z,42.32
2018-06-20T12:18:45.682Z,42.40
2018-06-20T12:21:18.463Z,40.75
2018-06-20T12:23:51.103Z,42.52
2018-06-20T12:26:24.787Z,42.76
2018-06-20T12:29:01.230Z,42.16
2018-06-20T12:31:34.591Z,42.95
2018-06-20T12:34:12.094Z,38.72
2018-06-20T12:36:45.807Z,39.50
2018-06-20T12:39:13.158Z,37.84
2018-06-20T12:41:46.866Z,39.99
2018-06-20T12:44:40.182Z,37.62
2018-06-20T12:47:12.099Z,38.15
2018-06-20T12:49:43.218Z,40.31
2018-06-20T12:52:10.162Z,41.37
2018-06-20T12:54:37.094Z,41.49
2018-06-20T12:57:06.031Z,42.31
2018-06-20T12:59:39.237Z,40.02
2018-06-20T13:02:06.186Z,39.92
2018-06-20T13:04:33.274Z,38.84
2018-06-20T13:07:00.227Z,39.84
2018-06-20T13:09:27.184Z,40.65
2018-06-20T13:11:54.131Z,40.09
2018-06-20T13:14:22.853Z,39.91
2018-06-20T13:16:49.058Z,41.21
2018-06-20T13:19:21.546Z,40.06
2018-06-20T13:21:51.995Z,42.04
2018-06-20T13:24:21.108Z,41.13
2018-06-20T13:26:48.107Z,38.93
2018-06-20T13:29:16.038Z,39.42
2018-06-20T13:31:49.250Z,39.29
2018-06-20T13:34:23.000Z,37.65
2018-06-20T13:39:32.754Z,38.72
2018-06-20T13:42:06.874Z,38.17
2018-06-20T13:44:35.526Z,38.37
2018-06-20T13:47:11.277Z,35.90
2018-06-20T13:49:38.154Z,36.11
2018-06-20T13:52:06.142Z,37.80
2018-06-20T13:54:36.590Z,38.80
2018-06-20T13:57:03.594Z,36.14
2018-06-20T13:59:33.535Z,36.90
2018-06-20T14:02:01.046Z,37.94
2018-06-20T14:04:28.022Z,36.19
2018-06-20T14:07:00.219Z,37.68
2018-06-20T14:09:33.298Z,35.94
2018-06-20T14:12:00.232Z,36.32
2018-06-20T14:14:27.134Z,34.51
2018-06-20T14:16:54.082Z,33.00
2018-06-20T14:19:29.946Z,34.24
2018-06-20T14:21:59.878Z,35.22
2018-06-20T14:24:26.822Z,33.79
2018-06-20T14:26:56.924Z,33.28
2018-06-20T14:29:40.869Z,33.53
2018-06-20T14:32:14.354Z,34.51
2018-06-20T14:34:47.038Z,31.89
2018-06-20T14:37:20.311Z,31.57
2018-06-20T14:39:53.150Z,31.74
2018-06-20T14:42:25.822Z,28.85
2018-06-20T14:45:07.838Z,27.42
2018-06-20T14:47:34.960Z,26.40
2018-06-20T14:50:01.943Z,24.96
2018-06-20T14:52:28.910Z,25.07
2018-06-20T14:57:31.991Z,24.87
2018-06-20T14:59:58.989Z,26.38
2018-06-20T15:02:39.362Z,25.79
2018-06-20T15:05:12.566Z,21.83
2018-06-20T15:07:39.550Z,21.77
2018-06-20T15:10:06.494Z,21.82
2018-06-20T15:12:37.127Z,20.96
2018-06-20T15:15:04.123Z,20.16
2018-06-20T15:17:33.161Z,19.92
2018-06-20T15:20:00.582Z,21.16
2018-06-20T15:22:45.485Z,23.07
2018-06-20T15:25:12.407Z,20.01
2018-06-20T15:27:45.278Z,20.22
2018-06-20T15:30:18.074Z,20.02
2018-06-20T15:32:51.886Z,21.64
2018-06-20T15:35:24.701Z,22.36
2018-06-20T15:37:57.402Z,21.96
2018-06-20T15:40:25.442Z,19.43
2018-06-20T15:42:53.225Z,20.19
2018-06-20T15:45:20.148Z,19.82
2018-06-20T15:47:48.107Z,18.65
2018-06-20T15:50:15.058Z,18.04
2018-06-20T15:52:42.059Z,19.58
2018-06-20T15:55:08.971Z,18.92
2018-06-20T15:57:36.922Z,19.71
2018-06-20T16:00:04.314Z,16.84
2018-06-20T16:02:31.282Z,17.25
2018-06-20T16:04:58.205Z,17.54
2018-06-20T16:07:26.198Z,17.23
2018-06-20T16:09:56.539Z,17.81
2018-06-20T16:12:23.662Z,17.29
2018-06-20T16:14:50.662Z,17.59
2018-06-20T16:17:18.181Z,17.33
2018-06-20T16:19:54.185Z,17.60
2018-06-20T16:22:30.847Z,19.39
2018-06-20T16:25:04.371Z,18.13
2018-06-20T16:27:37.062Z,17.58
2018-06-20T16:30:16.999Z,18.11
2018-06-20T16:32:43.909Z,17.06
2018-06-20T16:35:10.870Z,15.86
2018-06-20T16:37:37.843Z,15.33
2018-06-20T16:40:04.786Z,14.58
2018-06-20T16:42:31.763Z,14.99
2018-06-20T16:44:58.726Z,14.91
2018-06-20T16:47:26.683Z,15.90
2018-06-20T16:49:53.650Z,17.30
2018-06-20T16:52:20.642Z,16.41
2018-06-20T16:54:47.559Z,14.89
2018-06-20T16:57:14.531Z,15.29
2018-06-20T16:59:41.475Z,16.17
2018-06-20T17:02:14.252Z,13.49
2018-06-20T17:04:41.230Z,14.07
2018-06-20T17:07:08.191Z,14.25
2018-06-20T17:09:35.166Z,14.31
2018-06-20T17:12:22.633Z,13.03
2018-06-20T17:14:56.236Z,14.43
2018-06-20T17:17:28.898Z,13.83
2018-06-20T17:20:01.543Z,15.59
2018-06-20T17:22:34.158Z,16.12
2018-06-20T17:25:06.973Z,15.92
2018-06-20T17:27:37.190Z,16.23
2018-06-20T17:30:04.842Z,17.14
2018-06-20T17:32:31.738Z,17.52
2018-06-20T17:34:58.686Z,17.45
2018-06-20T17:37:25.655Z,17.03
2018-06-20T17:39:52.609Z,16.64
2018-06-20T17:42:27.533Z,15.83
2018-06-20T17:44:54.525Z,15.75
2018-06-20T17:47:21.474Z,16.41
2018-06-20T17:49:49.202Z,16.13
2018-06-20T17:52:17.111Z,16.57
2018-06-20T17:54:44.194Z,17.67
2018-06-20T17:57:11.187Z,17.77
2018-06-20T17:59:38.102Z,17.54
2018-06-20T18:02:06.990Z,17.52
2018-06-20T18:04:40.475Z,18.44
2018-06-20T18:07:13.038Z,19.33
2018-06-20T18:09:46.502Z,19.35
2018-06-20T18:12:19.245Z,19.59
2018-06-20T18:14:52.417Z,19.06
2018-06-20T18:17:19.370Z,19.70
2018-06-20T18:19:46.318Z,20.16
2018-06-20T18:22:13.278Z,20.50
2018-06-20T18:24:40.233Z,20.93
2018-06-20T18:27:08.621Z,21.82
2018-06-20T18:29:37.321Z,22.20
2018-06-20T18:32:04.329Z,23.03
2018-06-20T18:34:31.266Z,23.97
2018-06-20T18:36:58.236Z,24.30
2018-06-20T18:39:38.159Z,28.01
2018-06-20T18:42:05.125Z,29.96
2018-06-20T18:44:32.081Z,33.95
2018-06-20T18:46:59.042Z,36.13
2018-06-20T18:49:26.046Z,37.67
2018-06-20T18:51:52.954Z,40.48
2018-06-20T18:54:20.018Z,41.69
2018-06-20T18:56:47.182Z,44.38
2018-06-20T18:59:20.077Z,47.92
2018-06-20T19:01:52.918Z,50.80
2018-06-20T19:04:25.588Z,52.25
2018-06-20T19:06:59.079Z,53.08
2018-06-20T19:09:25.989Z,53.28
2018-06-20T19:11:52.886Z,52.44
2018-06-20T19:14:19.846Z,54.28
2018-06-20T19:16:50.518Z,51.97
2018-06-20T19:19:21.194Z,53.12
2018-06-20T19:21:48.202Z,55.62
2018-06-20T19:24:15.146Z,58.09
2018-06-20T19:26:42.135Z,59.19
2018-06-20T19:29:10.094Z,60.25
2018-06-20T19:31:39.970Z,59.58
2018-06-20T19:34:06.874Z,60.21
2018-06-20T19:36:33.814Z,63.04
2018-06-20T19:39:23.325Z,64.57
2018-06-20T19:41:50.238Z,62.49
2018-06-20T19:44:36.301Z,63.96
2018-06-20T19:47:06.403Z,65.67
2018-06-20T19:49:36.734Z,65.23
2018-06-20T19:52:08.212Z,63.77
2018-06-20T19:54:41.493Z,70.22
2018-06-20T19:57:11.446Z,70.13
2018-06-20T19:59:39.547Z,68.67
2018-06-20T20:02:06.532Z,68.96
2018-06-20T20:04:33.646Z,67.63
2018-06-20T20:07:00.614Z,66.75
2018-06-20T20:09:29.290Z,67.23
2018-06-20T20:11:56.295Z,66.06
2018-06-20T20:14:23.186Z,65.81
2018-06-20T20:16:50.144Z,67.16
2018-06-20T20:19:17.134Z,68.46
2018-06-20T20:21:44.086Z,68.17
2018-06-20T20:24:12.074Z,68.92
2018-06-20T20:26:45.027Z,69.37
2018-06-20T20:29:11.902Z,67.35
2018-06-20T20:31:38.886Z,69.80
2018-06-20T20:34:05.859Z,69.70
2018-06-20T20:36:32.813Z,70.44
2018-06-20T20:39:00.258Z,69.81
2018-06-20T20:41:27.244Z,69.39
2018-06-20T20:43:54.181Z,70.80
2018-06-20T20:46:21.746Z,70.15
2018-06-20T20:48:55.969Z,70.80
2018-06-20T20:51:25.910Z,70.84
2018-06-20T20:53:54.801Z,70.26
2018-06-20T20:56:21.774Z,70.92
2018-06-20T20:58:49.298Z,71.13
2018-06-20T21:01:19.290Z,71.97
2018-06-20T21:03:46.918Z,71.90
2018-06-20T21:06:13.938Z,73.51
2018-06-20T21:08:40.939Z,72.41
2018-06-20T21:11:08.871Z,74.02
2018-06-20T21:13:37.084Z,71.80
2018-06-20T21:16:05.052Z,74.20
2018-06-20T21:18:32.062Z,73.40
2018-06-20T21:20:59.019Z,74.31
2018-06-20T21:23:27.027Z,74.29
2018-06-20T21:25:56.925Z,73.15
2018-06-20T21:28:24.813Z,73.52
2018-06-20T21:30:51.756Z,72.67
2018-06-20T21:33:19.310Z,72.44
2018-06-20T21:35:47.839Z,72.81
2018-06-20T21:38:15.274Z,72.81
2018-06-20T21:40:43.773Z,72.34
2018-06-20T21:43:10.660Z,72.81
2018-06-20T21:45:38.298Z,71.55
2018-06-20T21:48:06.879Z,71.41
2018-06-20T21:50:33.786Z,70.78
2018-06-20T21:53:01.763Z,69.75
2018-06-20T21:55:29.302Z,71.44
2018-06-20T21:57:56.794Z,71.52
2018-06-20T22:00:25.493Z,71.13
2018-06-20T22:02:52.351Z,71.86
2018-06-20T22:05:26.302Z,73.18
2018-06-20T22:07:59.495Z,73.97
2018-06-20T22:10:29.378Z,74.05
2018-06-20T22:12:59.022Z,74.73
2018-06-20T22:15:26.814Z,76.86
2018-06-20T22:17:57.050Z,77.29
2018-06-20T22:20:30.231Z,76.20
2018-06-20T22:22:57.249Z,76.36
2018-06-20T22:25:24.851Z,75.80
2018-06-20T22:27:57.878Z,76.68
2018-06-20T22:30:32.301Z,76.71
2018-06-20T22:33:05.414Z,76.19
2018-06-20T22:35:32.854Z,76.64
2018-06-20T22:37:59.826Z,76.52
2018-06-20T22:40:29.446Z,76.62
2018-06-20T22:42:58.387Z,75.67
2018-06-20T22:45:29.727Z,75.96
2018-06-20T22:47:56.662Z,76.79
2018-06-20T22:50:26.590Z,76.37
2018-06-20T22:52:55.614Z,77.65
2018-06-20T22:55:23.446Z,78.30
2018-06-20T22:57:52.382Z,78.94
2018-06-20T23:00:19.875Z,79.15
2018-06-20T23:02:46.830Z,79.76
2018-06-20T23:05:13.778Z,80.05
2018-06-20T23:07:42.834Z,79.67
2018-06-20T23:10:14.502Z,79.46
2018-06-20T23:12:42.433Z,79.44
2018-06-20T23:15:15.466Z,79.87
2018-06-20T23:17:45.330Z,80.23
2018-06-20T23:20:18.461Z,80.44
2018-06-20T23:22:45.919Z,79.64
2018-06-20T23:25:14.419Z,80.55
2018-06-20T23:27:44.342Z,80.13
2018-06-20T23:30:11.214Z,80.13
2018-06-20T23:32:43.726Z,79.16
2018-06-20T23:35:10.672Z,79.17
2018-06-20T23:37:41.539Z,79.36
2018-06-20T23:40:13.538Z,79.41
2018-06-20T23:42:42.789Z,78.91
2018-06-20T23:45:14.669Z,78.59
2018-06-20T23:47:41.658Z,78.60
2018-06-20T23:50:09.533Z,79.01
2018-06-20T23:52:37.366Z,77.75
2018-06-20T23:55:05.031Z,78.52
2018-06-20T23:57:33.142Z,77.87
